Weather observations for the past three days for
Andrews County Airport
Imperial (Metric)
Date Time (cdt) Wind (mph) Vis. (mi.) Weather Sky Cond. Temperature (ºF) Relative Humidity Wind Chill (°F) Heat Index (°F) Pressure Precipitation (in)
Air Dwpt 6 hour altimeter (in) sea level (mb) 1 hr 3 hr 6 hr
Max. Min.
31 00:35 S 8 10.00 Fair CLR 81 55 41% 81 30.03 0.0
31 00:15 S 8 10.00 Fair CLR 81.5 54.5 39% 81 30.03 0.0
30 23:55 S 8 10.00 Fair CLR 82.2 54 38% 81 30.03 0.0
30 23:35 S 8 10.00 Fair CLR 83.3 54 36% 82 30.03 0.0
30 23:15 SE 9 10.00 Fair CLR 84.2 53.8 35% 83 30.03 0.0
30 22:55 SE 10 10.00 Fair CLR 85.1 53.6 34% 83 30.03 0.0
30 22:35 SE 10 10.00 Fair CLR 85.1 53.6 34% 83 30.03 0.0
30 22:15 SE 9 10.00 Fair CLR 85.3 53.2 33% 84 30.02 0.0
30 21:55 SE 8 10.00 Fair CLR 85.3 52.5 32% 83 30.01 0.0
30 21:35 SE 8 10.00 Fair CLR 86 51.8 31% 84 30 0.0
30 21:15 SE 6 10.00 Fair CLR 87.3 51.8 30% 85 29.99 0.0
30 20:55 SE 8 10.00 Fair CLR 88.9 52.2 28% 86 29.98 0.0
30 20:35 SE 8 10.00 Fair CLR 89.8 52.3 28% 87 29.98 0.0
30 20:15 SE 9 10.00 Fair CLR 91.4 52.7 27% 89 29.97 0.0
30 19:55 SE 9 10.00 Fair CLR 92.7 53.1 26% 90 29.97 0.0
30 19:35 SE 13 10.00 Partly Cloudy SCT095 93.9 53.6 26% 92 29.97 0.0
30 19:15 SE 7 10.00 Partly Cloudy SCT095 95 53.2 24% 93 29.96 0.0
30 18:55 SE 9 G 18 10.00 Fair CLR 94.6 53.6 99.1 92.5 25% 92 29.96 0.0
30 18:35 SE 8 10.00 Fair CLR 96.4 53.6 24% 94 29.96 0.0
30 18:15 S 9 10.00 Fair CLR 96.1 53.6 24% 94 29.97 0.0
30 17:55 S 8 10.00 Partly Cloudy SCT090 97.2 53.2 23% 95 29.96 0.0
30 17:35 S 7 10.00 Partly Cloudy SCT090 97.3 52.7 22% 95 29.97 0.0
30 17:15 S 15 10.00 Partly Cloudy SCT090 97.7 54.7 24% 96 29.97 0.0
30 16:55 S 13 G 17 10.00 Fair CLR 97.2 54.5 24% 95 29.97 0.0
30 16:35 SE 12 G 21 10.00 Fair CLR 98.8 53.6 22% 97 29.98 0.0
30 16:15 SE 8 10.00 Partly Cloudy SCT090 97.5 53.8 23% 95 29.99 0.0
30 15:55 S 8 G 17 10.00 Partly Cloudy SCT090 97.9 55 24% 96 30 0.0
30 15:35 S 8 G 16 10.00 Fair CLR 97.2 55.4 25% 95 30.01 0.0
30 15:15 SE 6 10.00 Fair CLR 97.3 55.6 25% 96 30.02 0.0
30 14:55 Calm 10.00 Fair CLR 96.4 55.8 26% 95 30.03 0.0
30 14:35 S 10 G 18 10.00 Fair CLR 95.5 56.8 27% 94 30.03 0.0
30 14:15 SE 12 G 17 10.00 Fair CLR 96.3 56.8 27% 95 30.04 0.0
30 13:55 SE 5 10.00 Fair CLR 94.8 57.2 28% 94 30.05 0.0
30 13:35 S 6 10.00 Fair CLR 94.3 57.9 30% 93 30.06 0.0
30 13:15 S 10 10.00 Fair CLR 93.9 59 31% 93 30.07 0.0
30 12:55 SE 9 10.00 Fair CLR 92.5 59.5 92.8 71.8 33% 92 30.07 0.0
30 12:35 S 9 G 18 10.00 Fair CLR 91.8 60.1 35% 91 30.08 0.0
30 12:15 S 8 10.00 Fair CLR 90.5 59.9 36% 90 30.09 0.0
30 11:55 S 7 10.00 Fair CLR 88.9 60.6 39% 89 30.1 0.0
30 11:35 S 8 10.00 Fair CLR 87.8 60.8 40% 88 30.1 0.0
30 11:15 S 8 G 16 10.00 Fair CLR 87.4 61.3 42% 88 30.1 0.0
30 10:55 S 10 G 16 10.00 Fair CLR 87.1 61.7 43% 87 30.1 0.0
30 10:35 S 13 G 17 10.00 Fair CLR 85.1 61.5 45% 85 30.1 0.0
30 10:15 S 13 G 18 10.00 Fair CLR 84 61.2 46% 84 30.1 0.0
30 09:55 S 14 G 18 10.00 Fair CLR 82.6 61.5 49% 83 30.1 0.0
30 09:35 S 12 G 18 10.00 Fair CLR 80.6 61.7 53% 82 30.1 0.0
30 09:15 S 16 10.00 Fair CLR 79.2 61.3 55% 80 30.1 0.0
30 08:55 S 12 G 17 10.00 Fair CLR 77.5 60.8 56% 79 30.1 0.0
30 08:35 S 8 10.00 Fair CLR 76.5 59.9 57% 78 30.1 0.0
30 08:15 S 6 10.00 Fair CLR 74.3 59.5 60% 30.1 0.0
30 07:55 S 6 10.00 Fair CLR 72.3 59.2 63% 30.1 0.0
30 07:35 S 5 10.00 Fair CLR 72.1 59 63% 30.09 0.0
30 07:15 S 3 10.00 Fair CLR 72.5 59 63% 30.08 0.0
30 06:55 S 5 10.00 Fair CLR 74.3 59 81.5 74.3 59% 30.07 0.0
30 06:35 S 7 10.00 Fair CLR 75.2 59 57% 78 30.07 0.0
30 06:15 S 8 10.00 Fair CLR 75.6 59 57% 78 30.07 0.0
30 05:55 S 9 10.00 Fair CLR 76.3 59 55% 78 30.07 0.0
30 05:35 S 10 10.00 Fair CLR 76.8 59 54% 79 30.07 0.0
30 05:15 S 13 G 17 10.00 Fair CLR 77.2 59 54% 79 30.07 0.0
30 04:55 S 12 G 20 10.00 Fair CLR 77.9 58.8 52% 79 30.05 0.0
30 04:35 S 13 10.00 Fair CLR 78.1 59 52% 79 30.05 0.0
30 04:15 S 13 G 17 10.00 Fair CLR 78.4 59 51% 80 30.05 0.0
30 03:55 Calm 10.00 Fair CLR 78.8 59 51% 80 30.05 0.0
30 03:35 S 10 10.00 Fair CLR 79 59 50% 80 30.05 0.0
30 03:15 S 13 10.00 Fair CLR 79.5 59 50% 80 30.06 0.0
30 02:55 S 12 10.00 Fair CLR 79.7 59 49% 80 30.07 0.0
30 02:15 S 10 10.00 Fair CLR 80.6 58.6 47% 81 30.07 0.0
30 01:55 S 10 G 16 10.00 Fair CLR 81.1 58.5 46% 81 30.08 0.0
30 01:35 S 10 10.00 Fair CLR 81.3 58.1 45% 81 30.08 0.0
30 01:15 S 10 10.00 Fair CLR 81.3 57.4 44% 81 30.08 0.0
30 00:55 S 10 10.00 Fair CLR 81.7 56.8 95.9 79.9 43% 81 30.08 0.0
30 00:35 S 8 10.00 Fair CLR 81.9 56.7 42% 82 30.08 0.0
30 00:15 S 7 10.00 Fair CLR 81.5 56.8 43% 81 30.07 0.0
29 23:55 S 5 10.00 Fair CLR 79.9 55.4 43% 80 30.08 0.0
29 23:35 S 5 10.00 Fair CLR 80.4 54.5 41% 80 30.08 0.0
29 23:15 SE 6 10.00 Fair CLR 81.5 54 39% 81 30.07 0.0
29 22:55 S 5 10.00 Fair CLR 80.8 53.2 39% 80 30.07 0.0
29 22:35 S 3 10.00 Fair CLR 82.6 53.6 37% 82 30.07 0.0
29 22:15 S 6 10.00 Fair CLR 82.8 53.2 36% 82 30.07 0.0
29 21:55 SE 5 10.00 Fair CLR 84.7 53.1 34% 83 30.06 0.0
29 21:35 SE 6 10.00 Fair CLR 85.8 52.7 32% 84 30.05 0.0
29 21:15 SE 6 10.00 Fair CLR 86.9 52.5 31% 85 30.04 0.0
29 20:55 SE 7 10.00 Fair CLR 88.2 52 29% 86 30.03 0.0
29 20:35 SE 8 10.00 Fair CLR 89.8 52 27% 87 30.03 0.0
29 20:15 S 9 10.00 Fair CLR 91 52.2 27% 88 30.02 0.0
29 19:55 S 9 10.00 Fair CLR 92.7 52 25% 90 30.02 0.0
29 19:35 S 13 10.00 Fair CLR 93.7 53.1 25% 91 30.02 0.0
29 19:15 S 9 G 18 10.00 Fair CLR 95 52.7 24% 92 30.03 0.0
29 18:55 SE 14 G 17 10.00 Fair CLR 95.9 53.6 99.3 93 24% 94 30.03 0.0
29 18:35 SE 12 10.00 Partly Cloudy SCT095 96.6 53.6 23% 94 30.03 0.0
29 18:15 S 9 10.00 Partly Cloudy SCT095 97.3 51.8 21% 95 30.02 0.0
29 17:55 S 9 10.00 Fair CLR 97 51.8 22% 94 30.02 0.0
29 17:35 S 7 G 18 10.00 Fair CLR 98.2 51.1 20% 95 30.03 0.0
29 17:15 S 5 G 10 10.00 Fair CLR 97 50.9 21% 94 30.03 0.0
29 16:55 E 12 10.00 Fair CLR 98.6 52.2 21% 96 30.04 0.0
29 16:35 Calm 10.00 Fair CLR 97.7 52.2 22% 95 30.04 0.0
29 16:15 S 13 G 17 10.00 Fair CLR 97.9 52.7 22% 95 30.05 0.0
29 15:55 SE 9 G 16 10.00 Fair CLR 99.3 53.1 21% 97 30.06 0.0
29 15:35 S 9 G 20 10.00 Fair CLR 97.9 54.9 24% 96 30.07 0.0
29 15:15 S 7 10.00 Fair CLR 97.3 53.6 23% 95 30.08 0.0
29 14:55 S 6 G 17 10.00 Fair CLR 96.3 54.5 25% 94 30.09 0.0
29 14:35 SW 10 G 18 10.00 Fair CLR 96.1 54.9 25% 94 30.1 0.0
29 14:15 S 12 10.00 Fair CLR 95 55.4 26% 93 30.11 0.0
29 13:55 SW 12 G 22 10.00 Fair CLR 94.6 55.4 27% 93 30.12 0.0
29 13:35 S 9 10.00 Fair CLR 95 55.8 27% 93 30.13 0.0
29 13:15 S 12 G 17 10.00 Fair CLR 93.7 55.8 28% 92 30.14 0.0
29 12:55 SE 7 G 16 10.00 Fair CLR 93.2 57 93.7 73.4 30% 92 30.14 0.0
29 12:35 S 8 G 21 10.00 Fair CLR 93 57.6 30% 92 30.15 0.0
29 12:15 S 9 G 18 10.00 Fair CLR 92.3 57.9 32% 91 30.16 0.0
29 11:55 S 5 G 16 10.00 Fair CLR 91.4 57.2 32% 90 30.16 0.0
29 11:35 S 8 10.00 Fair CLR 90.7 58.8 34% 90 30.17 0.0
29 11:15 SW 13 10.00 Fair CLR 89.4 60.6 38% 89 30.17 0.0
29 10:55 S 8 10.00 Fair CLR 88.7 61 39% 89 30.17 0.0
29 10:35 S 10 10.00 Fair CLR 86.7 61.2 42% 87 30.17 0.0
29 10:15 S 8 10.00 Fair CLR 85.6 61.3 44% 86 30.17 0.0
29 09:55 S 8 10.00 Fair CLR 83.3 61.5 48% 84 30.17 0.0
29 09:35 S 8 10.00 Fair CLR 81.5 61.7 51% 82 30.17 0.0
29 09:15 S 13 10.00 Fair CLR 79.9 61.3 53% 81 30.17 0.0
29 08:55 S 8 10.00 Fair CLR 78.6 61.3 56% 80 30.17 0.0
29 08:35 S 7 10.00 Fair CLR 76.8 61 58% 79 30.16 0.0
29 08:15 S 5 10.00 Fair CLR 74.7 60.3 61% 30.16 0.0
29 07:55 S 5 10.00 Fair CLR 74.3 60.3 62% 30.16 0.0
29 07:35 S 5 10.00 Fair CLR 74.1 59.9 61% 30.15 0.0
29 07:15 S 6 10.00 Fair CLR 73.4 59.9 63% 30.14 0.0
29 06:55 SW 7 10.00 Fair CLR 74.3 59.9 79.3 73.9 61% 30.14 0.0
29 06:35 SW 7 10.00 Fair CLR 75.2 59.9 59% 78 30.14 0.0
29 06:15 SW 7 10.00 Fair CLR 75.2 59.4 58% 78 30.14 0.0
29 05:55 SW 6 10.00 Fair CLR 75.7 59.4 57% 78 30.14 0.0
29 05:35 SW 7 10.00 Fair CLR 76.3 59.5 56% 78 30.14 0.0
29 05:15 SW 9 10.00 Fair CLR 76.1 59.5 57% 78 30.14 0.0
29 04:55 S 8 10.00 Fair CLR 76.5 59.5 56% 78 30.14 0.0
29 04:35 S 7 10.00 Fair CLR 76.6 59.9 56% 78 30.14 0.0
29 04:15 S 6 10.00 Fair CLR 75.7 59.9 58% 78 30.14 0.0
29 03:55 S 6 10.00 Fair CLR 75.9 59.2 56% 78 30.14 0.0
29 03:35 S 6 10.00 Fair CLR 74.3 58.6 58% 30.14 0.0
29 03:15 S 6 10.00 Fair CLR 74.3 58.6 58% 30.14 0.0
29 02:55 S 6 10.00 Fair CLR 74.7 58.5 57% 30.15 0.0
29 02:35 S 6 10.00 Fair CLR 75.2 58.3 56% 78 30.15 0.0
29 02:15 SE 6 10.00 Fair CLR 76.3 58.1 53% 78 30.15 0.0
29 01:55 SE 6 10.00 Fair CLR 76.6 57.6 52% 78 30.15 0.0
29 01:35 S 3 10.00 Fair CLR 77.4 57.2 50% 79 30.16 0.0
29 01:15 SE 6 10.00 Fair CLR 78.4 57.2 48% 79 30.16 0.0
29 00:55 SE 7 10.00 Fair CLR 79.3 56.5 93.9 78.8 46% 80 30.15 0.0
29 00:35 SE 7 10.00 Fair CLR 79.7 56.3 45% 80 30.15 0.0
29 00:15 SE 6 10.00 Fair CLR 78.8 55.6 45% 79 30.15 0.0
28 23:55 SE 5 10.00 Fair CLR 79 55.4 44% 80 30.14 0.0
28 23:35 SE 5 10.00 Fair CLR 80.1 55 42% 80 30.14 0.0
28 23:15 SE 6 10.00 Fair CLR 81 55.2 41% 81 30.14 0.0
28 22:55 SE 3 10.00 Fair CLR 80.8 55.2 42% 81 30.14 0.0
28 22:35 S 6 10.00 Fair CLR 82.4 54.7 39% 82 30.14 0.0
28 22:15 SE 6 10.00 Fair CLR 82.6 55.4 39% 82 30.13 0.0
28 21:55 SE 5 10.00 Fair CLR 82.6 55.6 40% 82 30.12 0.0
28 21:35 SE 6 10.00 Fair CLR 84 55.4 38% 83 30.11 0.0
28 21:15 SE 6 10.00 Fair CLR 85.1 55 36% 84 30.1 0.0
28 20:55 SE 6 10.00 Fair CLR 86.2 54.5 34% 84 30.09 0.0
28 20:35 SE 6 10.00 Fair CLR 87.6 53.6 31% 86 30.09 0.0
28 20:15 SE 7 10.00 Fair CLR 89.4 53.6 30% 87 30.09 0.0
28 19:55 SE 7 10.00 Fair CLR 90.7 52.7 27% 88 30.08 0.0
28 19:35 SE 7 10.00 Fair CLR 92.3 52 25% 90 30.08 0.0
28 19:15 SE 6 10.00 Fair CLR 93 52 25% 90 30.08 0.0
28 18:55 SE 8 10.00 Fair CLR 93.9 53.2 96.6 89.6 25% 91 30.08 0.0
28 18:35 SE 7 G 17 10.00 Fair CLR 93.9 52.9 25% 91 30.08 0.0
28 18:15 S 5 G 17 10.00 Fair CLR 94.3 52.7 24% 92 30.09 0.0
28 17:55 SE 10 10.00 Fair CLR 95 53.1 24% 93 30.09 0.0
28 17:35 SE 10 G 17 10.00 Partly Cloudy SCT085 95.4 54.1 25% 93 30.09 0.0
28 17:10 SE 12 G 17 10.00 Partly Cloudy SCT085 95.5 54.5 25% 93 30.1 0.0
28 16:55 SE 9 G 16 10.00 Partly Cloudy SCT085 95.4 54.7 25% 93 30.1 0.0
28 16:35 SE 7 G 17 10.00 Partly Cloudy SCT075 95.5 56.3 27% 94 30.11 0.0
28 16:15 SE 12 G 16 10.00 Partly Cloudy SCT075 96.3 56.5 26% 95 30.12 0.0
28 15:55 E 6 10.00 Partly Cloudy SCT075 94.6 57 28% 93 30.13 0.0
28 15:35 E 6 G 9 10.00 Partly Cloudy SCT075 94.3 57 29% 93 30.14 0.0
28 15:15 E 9 10.00 Partly Cloudy SCT075 95.9 57.4 28% 95 30.15 0.0
28 14:55 SE 9 10.00 Partly Cloudy SCT075 95.2 57.2 28% 94 30.15 0.0
28 14:35 E 6 10.00 Partly Cloudy SCT075 95.9 58.3 29% 95 30.17 0.0
28 14:15 E 8 G 16 10.00 Fair CLR 94.3 58.3 30% 93 30.17 0.0
28 13:55 NE 6 10.00 Fair CLR 93.2 58.1 31% 92 30.18 0.0
28 13:35 E 3 10.00 Partly Cloudy SCT070 92.5 58.8 32% 92 30.19 0.0
28 13:15 S 7 10.00 Partly Cloudy SCT070 91.8 59.5 34% 91 30.2 0.0
28 12:55 SE 3 10.00 Fair CLR 91.6 59.5 91.6 68.7 34% 91 30.21 0.0
28 12:35 SW 3 10.00 Fair CLR 89.2 59.7 37% 89 30.21 0.0
28 12:15 SE 6 10.00 Fair CLR 89.6 59.7 37% 89 30.22 0.0
28 11:55 SE 5 10.00 Fair CLR 87.8 59.9 39% 87 30.22 0.0
28 11:35 Calm 10.00 Fair CLR 86 59.9 41% 86 30.23 0.0
28 10:55 Calm 10.00 Fair CLR 85.1 59.7 42% 85 30.24 0.0
28 10:35 Calm 10.00 Fair CLR 82.2 59.5 46% 82 30.24 0.0
28 10:15 Calm 10.00 Fair CLR 81 59.9 49% 82 30.23 0.0
28 09:55 Calm 10.00 Fair CLR 79.9 61.7 54% 81 30.22 0.0
28 09:35 Calm 10.00 Fair CLR 77.4 63.1 62% 79 30.22 0.0
28 09:15 Calm 10.00 Fair CLR 75.6 63 65% 77 30.22 0.0
28 08:55 Calm 10.00 Fair CLR 73.8 64 72% 30.22 0.0
28 08:35 Calm 10.00 Fair CLR 72.5 64.4 76% 30.21 0.0
28 08:15 Calm 10.00 Fair CLR 70.7 63.5 78% 30.21 0.0
28 07:55 Calm 10.00 Fair CLR 69.8 62.6 78% 30.2 0.0
28 07:35 Calm 10.00 Fair CLR 69.4 62.1 78% 30.19 0.0
28 07:15 Calm 10.00 Fair CLR 69.4 62.1 78% 30.19 0.0
28 06:55 Calm 10.00 Fair CLR 69.4 62.1 72.5 68 78% 30.19 0.0
28 06:35 Calm 10.00 Fair CLR 69.1 62.1 78% 30.18 0.0
28 06:15 Calm 10.00 Fair CLR 68.9 62.8 81% 30.18 0.0
28 05:55 Calm 10.00 Fair CLR 68.9 62.6 80% 30.18 0.0
28 05:35 Calm 10.00 Fair CLR 68 62.6 83% 30.18 0.0
28 05:15 NE 3 10.00 Fair CLR 68.5 62.8 82% 30.18 0.0
28 04:55 NE 3 10.00 Fair CLR 68.9 62.4 80% 30.18 0.0
28 04:35 NE 3 10.00 Fair CLR 68.9 62.6 80% 30.17 0.0
28 04:15 Calm 10.00 Fair CLR 70.2 62.6 77% 30.18 0.0
28 03:55 NE 5 10.00 Fair CLR 69.3 62.4 79% 30.17 0.0
28 03:35 Calm 10.00 Fair CLR 70.9 61.7 73% 30.17 0.0
28 03:15 Calm 10.00 Fair CLR 71.1 61.7 72% 30.17 0.0
28 02:55 E 3 10.00 Fair CLR 71.6 61.7 71% 30.17 0.0
28 02:35 SE 5 10.00 Fair CLR 71.8 61.9 71% 30.17 0.0
28 02:15 SE 5 10.00 Fair CLR 71.6 62.6 73% 30.18 0.0
28 01:55 E 5 10.00 Fair CLR 72 63.1 74% 30.16 0.0
28 01:35 E 6 10.00 Fair CLR 71.6 63.5 76% 30.16 0.0
28 01:15 NE 3 10.00 Fair CLR 71.8 63.5 75% 30.16 0.0
Date Time (cdt) Wind (mph) Vis. (mi.) Weather Sky Cond. Air Dwpt Max. Min. Relative Humidity Wind Chill (°F) Heat Index (°F) altimeter (in) sea level (mb) 1 hr 3 hr 6 hr
6 hour
Temperature (ºF) Pressure Precipitation (in)